createdAt,value
2016-11-29T00:00:33.459Z,52.34
2016-11-29T00:01:33.125Z,53.66
2016-11-29T00:02:33.112Z,55.46
2016-11-29T00:03:33.086Z,56.96
2016-11-29T00:04:33.072Z,55.83
2016-11-29T00:05:33.052Z,54.99
2016-11-29T00:06:33.032Z,54.61
2016-11-29T00:07:33.007Z,52.81
2016-11-29T00:08:32.992Z,50.08
2016-11-29T00:09:32.970Z,47.53
2016-11-29T00:10:32.951Z,45.55
2016-11-29T00:11:32.933Z,43.95
2016-11-29T00:12:32.921Z,43.85
2016-11-29T00:13:32.898Z,45.55
2016-11-29T00:14:32.880Z,47.06
2016-11-29T00:15:32.863Z,48.66
2016-11-29T00:16:32.843Z,49.51
2016-11-29T00:17:32.822Z,49.7
2016-11-29T00:18:32.798Z,49.7
2016-11-29T00:19:32.780Z,49.7
2016-11-29T00:20:32.760Z,50.27
2016-11-29T00:21:32.762Z,49.51
2016-11-29T00:22:32.722Z,48.29
2016-11-29T00:23:32.704Z,48.38
2016-11-29T00:24:32.685Z,48.38
2016-11-29T00:25:32.665Z,49.7
2016-11-29T00:26:32.646Z,50.55
2016-11-29T00:27:32.628Z,51.68
2016-11-29T00:28:32.606Z,52.53
2016-11-29T00:29:32.587Z,53.1
2016-11-29T00:30:32.603Z,54.51
2016-11-29T00:31:32.555Z,55.36
2016-11-29T00:32:32.530Z,56.21
2016-11-29T00:33:32.515Z,56.96
2016-11-29T00:34:32.493Z,57.34
2016-11-29T00:35:32.473Z,57.91
2016-11-29T00:36:32.455Z,58.76
2016-11-29T00:37:32.435Z,59.04
2016-11-29T00:38:32.416Z,58.85
2016-11-29T00:39:32.401Z,56.87
2016-11-29T00:40:32.378Z,54.99
2016-11-29T00:41:32.362Z,54.04
2016-11-29T00:42:32.344Z,53.47
2016-11-29T00:43:32.321Z,52.53
2016-11-29T00:44:32.302Z,51.5
2016-11-29T00:45:32.287Z,50.55
2016-11-29T00:46:32.266Z,49.51
2016-11-29T00:47:32.250Z,48.66
2016-11-29T00:48:32.227Z,48.29
2016-11-29T00:49:32.208Z,48
2016-11-29T00:50:32.188Z,48.19
2016-11-29T00:51:32.169Z,48.47
2016-11-29T00:52:32.152Z,48.19
2016-11-29T00:53:32.133Z,47.53
2016-11-29T00:54:32.112Z,47.63
2016-11-29T00:55:32.093Z,46.03
2016-11-29T00:56:32.076Z,46.4
2016-11-29T00:57:32.055Z,48
2016-11-29T00:58:32.037Z,48.38
2016-11-29T00:59:32.017Z,48.29
2016-11-29T01:00:31.998Z,47.63
2016-11-29T01:01:31.978Z,47.63
2016-11-29T01:02:31.960Z,48
2016-11-29T01:03:31.939Z,47.34
2016-11-29T01:04:31.924Z,47.63
2016-11-29T01:05:31.901Z,47.34
2016-11-29T01:06:31.890Z,46.22
2016-11-29T01:07:31.863Z,45.46
2016-11-29T01:08:31.843Z,44.7
2016-11-29T01:09:31.825Z,45.27
2016-11-29T01:10:31.806Z,45.36
2016-11-29T01:11:31.790Z,45.55
2016-11-29T01:12:31.766Z,45.93
2016-11-29T01:13:31.747Z,46.03
2016-11-29T01:14:31.728Z,45.55
2016-11-29T01:15:31.709Z,44.7
2016-11-29T01:16:31.687Z,43.66
2016-11-29T01:17:31.673Z,43.57
2016-11-29T01:18:31.656Z,43.48
2016-11-29T01:19:31.631Z,43.38
2016-11-29T01:20:31.616Z,44.89
2016-11-29T01:21:31.594Z,45.84
2016-11-29T01:22:31.576Z,46.4
2016-11-29T01:23:31.587Z,47.16
2016-11-29T01:24:31.536Z,49.61
2016-11-29T01:25:31.518Z,53.57
2016-11-29T01:26:31.496Z,55.8
2016-11-29T01:27:31.478Z,57.12
2016-11-29T01:28:31.460Z,58.45
2016-11-29T01:29:31.441Z,58.92
2016-11-29T01:30:31.421Z,59.2
2016-11-29T01:31:31.399Z,59.39
2016-11-29T01:32:31.385Z,59.39
2016-11-29T01:33:31.363Z,59.77
2016-11-29T01:34:31.344Z,59.67
2016-11-29T01:35:31.321Z,60.89
2016-11-29T01:36:31.306Z,61.74
2016-11-29T01:37:31.285Z,62.12
2016-11-29T01:38:31.266Z,63.06
2016-11-29T01:39:31.245Z,64.95
2016-11-29T01:40:31.226Z,66.64
2016-11-29T01:41:31.206Z,67.68
2016-11-29T01:42:31.187Z,68.34
2016-11-29T01:43:31.168Z,69.38
2016-11-29T01:44:31.150Z,68.63
2016-11-29T01:45:31.132Z,67.87
2016-11-29T01:46:31.433Z,66.08
2016-11-29T01:47:31.088Z,64.76
2016-11-29T01:48:31.070Z,63.91
2016-11-29T01:49:31.052Z,62.12
2016-11-29T01:50:31.032Z,61.18
2016-11-29T01:51:31.013Z,60.42
2016-11-29T01:52:30.993Z,58.63
2016-11-29T01:53:30.974Z,57.41
2016-11-29T01:54:30.954Z,58.07
2016-11-29T01:55:31.255Z,58.35
2016-11-29T01:56:30.923Z,59.67
2016-11-29T01:57:30.892Z,60.99
2016-11-29T01:58:30.875Z,63.25
2016-11-29T01:59:30.856Z,65.05
2016-11-29T02:00:30.835Z,65.89
2016-11-29T02:01:30.818Z,67.12
2016-11-29T02:02:30.797Z,67.87
2016-11-29T02:03:30.779Z,67.78
2016-11-29T02:04:30.758Z,67.68
2016-11-29T02:05:31.055Z,67.87
2016-11-29T02:06:30.718Z,68.53
2016-11-29T02:07:30.699Z,67.97
2016-11-29T02:08:30.678Z,65.8
2016-11-29T02:09:30.658Z,63.91
2016-11-29T02:10:30.637Z,61.08
2016-11-29T02:11:30.622Z,58.63
2016-11-29T02:12:30.599Z,57.22
2016-11-29T02:13:30.582Z,56.27
2016-11-29T02:14:30.559Z,55.99
2016-11-29T02:15:30.539Z,55.99
2016-11-29T02:16:30.520Z,55.9
2016-11-29T02:17:30.504Z,55.9
2016-11-29T02:18:30.479Z,57.78
2016-11-29T02:19:30.463Z,58.63
2016-11-29T02:20:30.442Z,58.82
2016-11-29T02:21:30.421Z,58.63
2016-11-29T02:22:30.402Z,59.2
2016-11-29T02:23:30.381Z,59.3
2016-11-29T02:24:30.361Z,60.24
2016-11-29T02:25:30.345Z,60.14
2016-11-29T02:26:30.320Z,60.89
2016-11-29T02:27:30.301Z,62.03
2016-11-29T02:28:30.282Z,61.93
2016-11-29T02:29:30.261Z,63.06
2016-11-29T02:30:30.243Z,63.54
2016-11-29T02:31:30.222Z,63.54
2016-11-29T02:32:30.198Z,61.93
2016-11-29T02:33:30.180Z,61.18
2016-11-29T02:34:30.164Z,60.52
2016-11-29T02:35:30.142Z,60.24
2016-11-29T02:36:30.121Z,60.61
2016-11-29T02:37:30.111Z,60.61
2016-11-29T02:38:30.080Z,61.27
2016-11-29T02:39:30.061Z,62.21
2016-11-29T02:40:30.043Z,62.97
2016-11-29T02:41:30.020Z,62.4
2016-11-29T02:42:30.002Z,61.74
2016-11-29T02:43:29.983Z,62.12
2016-11-29T02:44:29.962Z,62.59
2016-11-29T02:45:29.942Z,65.14
2016-11-29T02:46:29.922Z,67.12
2016-11-29T02:47:29.904Z,68.72
2016-11-29T02:48:29.881Z,69.76
2016-11-29T02:49:29.861Z,68.34
2016-11-29T02:50:29.843Z,66.55
2016-11-29T02:51:29.821Z,64.1
2016-11-29T02:52:29.801Z,61.74
2016-11-29T02:53:29.784Z,61.27
2016-11-29T02:54:29.762Z,60.89
2016-11-29T02:55:29.741Z,60.05
2016-11-29T02:56:29.719Z,60.71
2016-11-29T02:57:29.701Z,60.52
2016-11-29T02:58:29.679Z,61.08
2016-11-29T02:59:29.660Z,60.14
2016-11-29T03:00:29.641Z,59.58
2016-11-29T03:01:29.650Z,58.92
2016-11-29T03:02:29.596Z,59.58
2016-11-29T03:03:29.580Z,61.84
2016-11-29T03:04:29.562Z,64.1
2016-11-29T03:05:29.539Z,66.83
2016-11-29T03:06:29.518Z,66.83
2016-11-29T03:07:29.500Z,66.36
2016-11-29T03:08:29.482Z,65.77
2016-11-29T03:09:29.458Z,65.33
2016-11-29T03:10:29.440Z,65.05
2016-11-29T03:11:29.422Z,65.05
2016-11-29T03:12:29.401Z,65.8
2016-11-29T03:13:29.385Z,65.77
2016-11-29T03:14:29.359Z,64.64
2016-11-29T03:15:29.338Z,63.5
2016-11-29T03:16:29.317Z,63.25
2016-11-29T03:17:29.297Z,63.41
2016-11-29T03:18:29.283Z,63.32
2016-11-29T03:19:29.257Z,63.54
2016-11-29T03:20:29.239Z,64.16
2016-11-29T03:21:29.216Z,64.07
2016-11-29T03:22:29.223Z,64.83
2016-11-29T03:23:29.178Z,65.86
2016-11-29T03:24:29.159Z,67.46
2016-11-29T03:25:29.138Z,68.5
2016-11-29T03:26:29.120Z,68.97
2016-11-29T03:27:29.099Z,68.31
2016-11-29T03:28:29.076Z,67.65
2016-11-29T03:29:29.060Z,66.89
2016-11-29T03:30:29.038Z,66.8
2016-11-29T03:31:29.019Z,65.48
2016-11-29T03:32:29.000Z,64.07
2016-11-29T03:33:28.977Z,62.56
2016-11-29T03:34:28.956Z,62.18
2016-11-29T03:35:28.935Z,63.22
2016-11-29T03:36:28.917Z,63.03
2016-11-29T03:37:28.897Z,65.58
2016-11-29T03:38:28.883Z,65.86
2016-11-29T03:39:28.854Z,65.39
2016-11-29T03:40:28.838Z,63.6
2016-11-29T03:41:28.816Z,63.79
2016-11-29T03:42:28.799Z,64.45
2016-11-29T03:43:28.774Z,66.14
2016-11-29T03:44:28.754Z,66.33
2016-11-29T03:45:28.733Z,66.14
2016-11-29T03:46:28.717Z,65.86
2016-11-29T03:47:28.693Z,65.95
2016-11-29T03:48:28.675Z,66.61
2016-11-29T03:49:28.652Z,66.52
2016-11-29T03:50:28.632Z,66.24
2016-11-29T03:51:28.618Z,66.52
2016-11-29T03:52:28.597Z,67.74
2016-11-29T03:53:28.571Z,69.72
2016-11-29T03:54:28.553Z,71.23
2016-11-29T03:55:28.536Z,73.3
2016-11-29T03:56:28.512Z,74.9
2016-11-29T03:57:28.493Z,75.38
2016-11-29T03:58:28.473Z,74.81
2016-11-29T03:59:28.451Z,71.89
2016-11-29T04:00:28.429Z,70.95
2016-11-29T04:01:28.411Z,70.19
2016-11-29T04:02:28.392Z,70.67
2016-11-29T04:03:28.374Z,70.48
2016-11-29T04:04:28.351Z,69.63
2016-11-29T04:05:28.331Z,67.55
2016-11-29T04:06:28.321Z,65.58
2016-11-29T04:07:28.288Z,64.16
2016-11-29T04:08:28.586Z,63.41
2016-11-29T04:09:28.252Z,63.69
2016-11-29T04:10:28.231Z,63.03
2016-11-29T04:11:28.210Z,63.69
2016-11-29T04:12:28.190Z,63.79
2016-11-29T04:13:28.169Z,64.92
2016-11-29T04:14:28.147Z,65.3
2016-11-29T04:15:28.128Z,64.83
2016-11-29T04:16:28.108Z,65.2
2016-11-29T04:17:28.089Z,65.77
2016-11-29T04:18:28.068Z,68.5
2016-11-29T04:19:28.047Z,70.67
2016-11-29T04:20:28.028Z,71.04
2016-11-29T04:21:28.010Z,70.19
2016-11-29T04:22:27.985Z,68.59
2016-11-29T04:23:27.967Z,67.74
2016-11-29T04:24:27.946Z,66.99
2016-11-29T04:25:27.927Z,65.77
2016-11-29T04:26:27.905Z,64.45
2016-11-29T04:27:27.884Z,63.03
2016-11-29T04:28:27.866Z,61.71
2016-11-29T04:29:27.843Z,61.9
2016-11-29T04:30:27.827Z,61.99
2016-11-29T04:31:27.803Z,61.05
2016-11-29T04:32:27.781Z,61.52
2016-11-29T04:33:27.765Z,61.71
2016-11-29T04:34:27.743Z,63.88
2016-11-29T04:35:27.723Z,66.24
2016-11-29T04:36:27.702Z,66.89
2016-11-29T04:37:27.681Z,67.55
2016-11-29T04:38:27.662Z,67.65
2016-11-29T04:39:27.643Z,65.48
2016-11-29T04:40:27.622Z,65.01
2016-11-29T04:41:27.609Z,65.01
2016-11-29T04:42:27.580Z,64.92
2016-11-29T04:43:27.560Z,64.92
2016-11-29T04:44:27.541Z,65.77
2016-11-29T04:45:27.520Z,64.83
2016-11-29T04:46:27.500Z,64.73
2016-11-29T04:47:27.480Z,64.73
2016-11-29T04:48:27.458Z,65.86
2016-11-29T04:49:27.439Z,66.24
2016-11-29T04:50:27.419Z,66.24
2016-11-29T04:51:27.397Z,65.67
2016-11-29T04:52:27.378Z,65.86
2016-11-29T04:53:27.356Z,65.2
2016-11-29T04:54:27.341Z,63.69
2016-11-29T04:55:27.316Z,63.32
2016-11-29T04:56:27.296Z,64.73
2016-11-29T04:57:27.276Z,65.67
2016-11-29T04:58:27.258Z,66.71
2016-11-29T04:59:27.239Z,67.46
2016-11-29T05:00:27.217Z,67.55
2016-11-29T05:01:27.203Z,67.93
2016-11-29T05:02:27.174Z,68.31
2016-11-29T05:03:27.469Z,68.68
2016-11-29T05:04:27.136Z,68.5
2016-11-29T05:05:27.116Z,67.84
2016-11-29T05:06:27.409Z,65.77
2016-11-29T05:07:27.075Z,66.24
2016-11-29T05:08:27.053Z,64.73
2016-11-29T05:09:27.035Z,63.79
2016-11-29T05:10:27.015Z,65.01
2016-11-29T05:11:26.994Z,65.77
2016-11-29T05:12:26.974Z,66.05
2016-11-29T05:13:26.954Z,66.24
2016-11-29T05:14:26.934Z,65.39
2016-11-29T05:15:26.912Z,65.2
2016-11-29T05:16:26.893Z,65.2
2016-11-29T05:17:26.871Z,65.77
2016-11-29T05:18:26.850Z,65.95
2016-11-29T05:19:27.144Z,65.48
2016-11-29T05:20:26.812Z,65.58
2016-11-29T05:21:26.792Z,65.3
2016-11-29T05:22:26.772Z,65.77
2016-11-29T05:23:26.749Z,66.61
2016-11-29T05:24:26.728Z,67.93
2016-11-29T05:25:26.710Z,68.59
2016-11-29T05:26:26.691Z,70.1
2016-11-29T05:27:26.669Z,70.57
2016-11-29T05:28:26.649Z,71.14
2016-11-29T05:29:26.629Z,71.23
2016-11-29T05:30:26.609Z,71.7
2016-11-29T05:31:26.588Z,71.61
2016-11-29T05:32:26.575Z,71.14
2016-11-29T05:33:26.551Z,71.51
2016-11-29T05:34:26.526Z,71.89
2016-11-29T05:35:26.506Z,71.42
2016-11-29T05:36:26.492Z,70.57
2016-11-29T05:37:26.468Z,69.06
2016-11-29T05:38:26.447Z,67.84
2016-11-29T05:39:26.428Z,65.39
2016-11-29T05:40:26.407Z,65.86
2016-11-29T05:41:26.386Z,65.11
2016-11-29T05:42:26.684Z,64.92
2016-11-29T05:43:26.351Z,65.01
2016-11-29T05:44:26.323Z,64.64
2016-11-29T05:45:26.306Z,65.3
2016-11-29T05:46:26.595Z,66.42
2016-11-29T05:47:26.264Z,67.55
2016-11-29T05:48:26.244Z,67.46
2016-11-29T05:49:26.273Z,67.74
2016-11-29T05:50:26.206Z,67.74
2016-11-29T05:51:26.181Z,67.08
2016-11-29T05:52:26.163Z,66.42
2016-11-29T05:53:26.142Z,66.14
2016-11-29T05:54:26.122Z,65.95
2016-11-29T05:55:26.132Z,66.8
2016-11-29T05:56:26.082Z,66.42
2016-11-29T05:57:26.060Z,65.2
2016-11-29T05:58:26.040Z,65.48
2016-11-29T05:59:26.019Z,66.14
2016-11-29T06:00:26.004Z,66.52
2016-11-29T06:01:25.978Z,65.67
2016-11-29T06:02:25.959Z,65.48
2016-11-29T06:03:25.939Z,65.86
2016-11-29T06:04:25.917Z,65.39
2016-11-29T06:05:25.897Z,64.73
2016-11-29T06:06:25.878Z,65.3
2016-11-29T06:07:25.861Z,65.01
2016-11-29T06:08:25.840Z,65.3
2016-11-29T06:09:25.817Z,65.2
2016-11-29T06:10:25.796Z,66.33
2016-11-29T06:11:25.775Z,65.95
2016-11-29T06:12:25.772Z,65.58
2016-11-29T06:13:25.737Z,65.67
2016-11-29T06:14:25.724Z,65.48
2016-11-29T06:15:25.696Z,66.52
2016-11-29T06:16:25.674Z,66.8
2016-11-29T06:17:25.654Z,67.84
2016-11-29T06:18:25.632Z,67.74
2016-11-29T06:19:25.612Z,68.02
2016-11-29T06:20:25.597Z,68.4
2016-11-29T06:21:25.571Z,68.87
2016-11-29T06:22:25.553Z,67.46
2016-11-29T06:23:25.529Z,66.8
2016-11-29T06:24:25.514Z,65.95
2016-11-29T06:25:25.492Z,65.58
2016-11-29T06:26:25.472Z,65.2
2016-11-29T06:27:25.449Z,65.3
2016-11-29T06:28:25.431Z,65.48
2016-11-29T06:29:25.410Z,65.95
2016-11-29T06:30:25.401Z,66.8
2016-11-29T06:31:25.369Z,67.84
2016-11-29T06:32:25.354Z,68.31
2016-11-29T06:33:25.328Z,69.16
2016-11-29T06:34:25.310Z,69.16
2016-11-29T06:35:25.289Z,68.02
2016-11-29T06:36:25.268Z,67.27
2016-11-29T06:37:25.247Z,67.55
2016-11-29T06:38:25.228Z,68.12
2016-11-29T06:39:25.215Z,68.59
2016-11-29T06:40:25.190Z,71.14
2016-11-29T06:41:25.167Z,74.05
2016-11-29T06:42:25.148Z,76.32
2016-11-29T06:43:25.127Z,78.3
2016-11-29T06:44:25.104Z,80.46
2016-11-29T06:45:25.086Z,81.78
2016-11-29T06:46:25.066Z,82.35
2016-11-29T06:47:25.047Z,83.95
2016-11-29T06:48:25.023Z,83.86
2016-11-29T06:49:25.004Z,83.58
2016-11-29T06:50:24.987Z,83.76
2016-11-29T06:51:24.964Z,83.76
2016-11-29T06:52:24.942Z,83.76
2016-11-29T06:53:25.234Z,84.42
2016-11-29T06:54:24.904Z,84.42
2016-11-29T06:55:24.883Z,82.63
2016-11-29T06:56:24.862Z,79.05
2016-11-29T06:57:24.843Z,76.22
2016-11-29T06:58:24.821Z,74.05
2016-11-29T06:59:24.799Z,71.61
2016-11-29T07:00:24.780Z,71.04
2016-11-29T07:01:24.797Z,70.01
2016-11-29T07:02:24.737Z,68.02
2016-11-29T07:03:24.719Z,67.74
2016-11-29T07:04:24.704Z,67.74
2016-11-29T07:05:24.683Z,69.53
2016-11-29T07:06:24.655Z,70.29
2016-11-29T07:07:24.637Z,72.74
2016-11-29T07:08:24.616Z,74.43
2016-11-29T07:09:24.597Z,75.09
2016-11-29T07:10:24.574Z,76.7
2016-11-29T07:11:24.557Z,77.17
2016-11-29T07:12:24.534Z,77.55
2016-11-29T07:13:24.515Z,77.26
2016-11-29T07:14:24.492Z,77.73
2016-11-29T07:15:24.473Z,78.02
2016-11-29T07:16:24.478Z,78.96
2016-11-29T07:17:24.435Z,77.83
2016-11-29T07:18:24.412Z,75.28
2016-11-29T07:19:24.395Z,72.08
2016-11-29T07:20:24.370Z,69.63
2016-11-29T07:21:24.351Z,69.35
2016-11-29T07:22:24.331Z,69.25
2016-11-29T07:23:24.313Z,70.1
2016-11-29T07:24:24.290Z,71.42
2016-11-29T07:25:24.270Z,72.74
2016-11-29T07:26:24.285Z,74.15
2016-11-29T07:27:24.228Z,75.19
2016-11-29T07:28:24.208Z,76.79
2016-11-29T07:29:24.187Z,75.19
2016-11-29T07:30:24.168Z,73.39
2016-11-29T07:31:24.147Z,70.48
2016-11-29T07:32:24.125Z,68.12
2016-11-29T07:33:24.107Z,66.89
2016-11-29T07:34:24.086Z,66.71
2016-11-29T07:35:24.065Z,65.11
2016-11-29T07:36:24.046Z,64.54
2016-11-29T07:37:24.026Z,64.92
2016-11-29T07:38:24.003Z,65.77
2016-11-29T07:39:23.981Z,67.18
2016-11-29T07:40:23.964Z,68.02
2016-11-29T07:41:23.942Z,69.35
2016-11-29T07:42:24.603Z,70.67
2016-11-29T07:43:23.900Z,72.36
2016-11-29T07:44:23.884Z,73.58
2016-11-29T07:45:23.861Z,74.9
2016-11-29T07:46:23.845Z,74.53
2016-11-29T07:47:23.822Z,74.05
2016-11-29T07:48:23.807Z,73.49
2016-11-29T07:49:23.778Z,73.87
2016-11-29T07:50:23.775Z,73.96
2016-11-29T07:51:23.746Z,74.81
2016-11-29T07:52:23.726Z,75.38
2016-11-29T07:53:23.703Z,75.19
2016-11-29T07:54:23.694Z,74.05
2016-11-29T07:55:23.659Z,72.27
2016-11-29T07:56:23.639Z,68.4
2016-11-29T07:57:23.618Z,66.24
2016-11-29T07:58:23.597Z,65.77
2016-11-29T07:59:23.576Z,64.64
2016-11-29T08:00:23.559Z,65.3
2016-11-29T08:01:23.540Z,65.3
2016-11-29T08:02:23.516Z,63.32
2016-11-29T08:03:23.496Z,61.36
2016-11-29T08:04:23.477Z,60.24
2016-11-29T08:05:23.457Z,60.24
2016-11-29T08:06:23.434Z,60.42
2016-11-29T08:07:23.415Z,61.46
2016-11-29T08:08:23.395Z,62.59
2016-11-29T08:09:23.379Z,63.91
2016-11-29T08:10:23.355Z,65.23
2016-11-29T08:11:23.337Z,66.27
2016-11-29T08:12:23.312Z,66.93
2016-11-29T08:13:23.293Z,66.83
2016-11-29T08:14:23.274Z,65.7
2016-11-29T08:15:23.255Z,66.36
2016-11-29T08:16:23.236Z,66.83
2016-11-29T08:17:23.212Z,67.49
2016-11-29T08:18:23.193Z,67.49
2016-11-29T08:19:23.172Z,67.59
2016-11-29T08:20:23.159Z,67.87
2016-11-29T08:21:23.132Z,67.68
2016-11-29T08:22:23.113Z,66.64
2016-11-29T08:23:23.091Z,65.61
2016-11-29T08:24:23.072Z,64.67
2016-11-29T08:25:23.053Z,63.91
2016-11-29T08:26:23.032Z,63.91
2016-11-29T08:27:23.018Z,64.1
2016-11-29T08:28:22.993Z,64.86
2016-11-29T08:29:22.971Z,64.76
2016-11-29T08:30:22.952Z,65.42
2016-11-29T08:31:22.935Z,64.86
2016-11-29T08:32:22.912Z,63.82
2016-11-29T08:33:22.892Z,62.21
2016-11-29T08:34:22.926Z,61.84
2016-11-29T08:35:22.853Z,61.27
2016-11-29T08:36:22.834Z,61.08
2016-11-29T08:37:22.816Z,60.52
2016-11-29T08:38:22.796Z,59.67
2016-11-29T08:39:22.772Z,59.01
2016-11-29T08:40:22.757Z,58.54
2016-11-29T08:41:22.735Z,58.63
2016-11-29T08:42:23.037Z,58.07
2016-11-29T08:43:22.696Z,58.16
2016-11-29T08:44:22.678Z,57.12
2016-11-29T08:45:22.654Z,57.12
2016-11-29T08:46:22.633Z,56.84
2016-11-29T08:47:22.621Z,56.75
2016-11-29T08:48:22.596Z,56.84
2016-11-29T08:49:22.576Z,57.41
2016-11-29T08:50:22.555Z,58.26
2016-11-29T08:51:22.535Z,58.07
2016-11-29T08:52:22.517Z,58.54
2016-11-29T08:53:22.496Z,59.01
2016-11-29T08:54:22.477Z,59.01
2016-11-29T08:55:22.459Z,59.2
2016-11-29T08:56:22.437Z,58.92
2016-11-29T08:57:22.419Z,59.67
2016-11-29T08:58:22.408Z,59.48
2016-11-29T08:59:22.380Z,59.95
2016-11-29T09:00:22.360Z,60.42
2016-11-29T09:01:22.341Z,60.93
2016-11-29T09:02:22.324Z,61.21
2016-11-29T09:03:22.301Z,61.58
2016-11-29T09:04:22.282Z,61.87
2016-11-29T09:05:22.263Z,61.87
2016-11-29T09:06:22.244Z,61.96
2016-11-29T09:07:22.224Z,61.96
2016-11-29T09:08:22.203Z,62.06
2016-11-29T09:09:22.226Z,62.25
2016-11-29T09:10:22.209Z,62.25
2016-11-29T09:11:22.188Z,62.06
2016-11-29T09:12:22.170Z,62.06
2016-11-29T09:13:22.148Z,61.3
2016-11-29T09:14:22.131Z,61.4
2016-11-29T09:15:22.111Z,61.02
2016-11-29T09:16:22.091Z,61.49
2016-11-29T09:17:22.075Z,61.3
2016-11-29T09:18:22.055Z,61.87
2016-11-29T09:19:22.032Z,62.06
2016-11-29T09:20:22.022Z,63.1
2016-11-29T09:21:21.998Z,63.57
2016-11-29T09:22:21.976Z,64.04
2016-11-29T09:23:21.955Z,63.57
2016-11-29T09:24:21.938Z,62.81
2016-11-29T09:25:21.920Z,62.25
2016-11-29T09:26:21.900Z,62.15
2016-11-29T09:27:21.879Z,61.77
2016-11-29T09:28:21.861Z,62.34
2016-11-29T09:29:21.841Z,61.77
2016-11-29T09:30:21.822Z,60.74
2016-11-29T09:31:21.810Z,59.89
2016-11-29T09:32:21.783Z,58.29
2016-11-29T09:33:21.764Z,58
2016-11-29T09:34:21.745Z,57.06
2016-11-29T09:35:21.727Z,57.15
2016-11-29T09:36:21.705Z,57.91
2016-11-29T09:37:21.690Z,58
2016-11-29T09:38:21.673Z,58.29
2016-11-29T09:39:21.654Z,58.76
2016-11-29T09:40:21.632Z,59.51
2016-11-29T09:41:21.613Z,60.27
2016-11-29T09:42:21.599Z,61.21
2016-11-29T09:43:21.585Z,62.06
2016-11-29T09:44:21.566Z,62.25
2016-11-29T09:45:21.538Z,63
2016-11-29T09:46:21.518Z,62.34
2016-11-29T09:47:21.497Z,61.87
2016-11-29T09:48:21.480Z,61.96
2016-11-29T09:49:21.459Z,61.87
2016-11-29T09:50:21.457Z,62.06
2016-11-29T09:51:21.445Z,62.15
2016-11-29T09:52:21.415Z,61.77
2016-11-29T09:53:21.402Z,62.25
2016-11-29T09:54:21.370Z,61.96
2016-11-29T09:55:21.350Z,62.25
2016-11-29T09:56:21.330Z,62.47
2016-11-29T09:57:21.313Z,62.43
2016-11-29T09:58:21.292Z,62.15
2016-11-29T09:59:21.274Z,62.28
2016-11-29T10:00:21.290Z,62.56
2016-11-29T10:01:21.237Z,62.18
2016-11-29T10:02:21.217Z,61.43
2016-11-29T10:03:21.200Z,60.49
2016-11-29T10:04:21.206Z,59.73
2016-11-29T10:05:21.162Z,59.83
2016-11-29T10:06:21.146Z,58.79
2016-11-29T10:07:21.126Z,57.37
2016-11-29T10:08:21.107Z,55.86
2016-11-29T10:09:21.087Z,54.63
2016-11-29T10:10:21.071Z,53.97
2016-11-29T10:11:21.051Z,53.88
2016-11-29T10:12:21.035Z,53.97
2016-11-29T10:13:21.012Z,54.44
2016-11-29T10:14:20.996Z,55.39
2016-11-29T10:15:20.975Z,56.71
2016-11-29T10:16:20.958Z,56.81
2016-11-29T10:17:20.937Z,56.81
2016-11-29T10:18:20.922Z,56.81
2016-11-29T10:19:20.902Z,57.65
2016-11-29T10:20:20.885Z,58.22
2016-11-29T10:21:20.865Z,58.88
2016-11-29T10:22:20.847Z,59.83
2016-11-29T10:23:20.830Z,60.99
2016-11-29T10:24:20.812Z,61.55
2016-11-29T10:25:20.794Z,61.74
2016-11-29T10:26:20.778Z,63.26
2016-11-29T10:27:20.761Z,64.2
2016-11-29T10:28:20.742Z,70.81
2016-11-29T10:29:20.778Z,77.32
2016-11-29T10:30:20.703Z,80.72
2016-11-29T10:31:20.684Z,88.09
2016-11-29T10:32:20.665Z,90.64
2016-11-29T10:33:20.647Z,99.79
2016-11-29T10:34:20.631Z,98.66
2016-11-29T10:35:20.610Z,99.99
2016-11-29T10:36:20.592Z,99.99
2016-11-29T10:37:20.578Z,99.99
2016-11-29T10:38:20.593Z,99.99
2016-11-29T10:39:20.537Z,99.99
2016-11-29T10:40:20.532Z,99.99
2016-11-29T10:41:20.502Z,99.99
2016-11-29T10:42:20.485Z,99.99
2016-11-29T10:43:20.466Z,99.99
2016-11-29T10:44:20.450Z,99.99
2016-11-29T10:45:20.431Z,99.99
2016-11-29T10:46:20.413Z,99.99
2016-11-29T10:47:20.395Z,99.99
2016-11-29T10:48:20.379Z,99.99
2016-11-29T10:49:20.360Z,99.99
2016-11-29T10:50:20.345Z,99.99
2016-11-29T10:51:20.324Z,99.99
2016-11-29T10:52:20.630Z,99.99
2016-11-29T10:53:20.287Z,99.99
2016-11-29T10:54:20.270Z,99.99
2016-11-29T10:55:20.255Z,99.99
2016-11-29T10:56:20.237Z,99.99
2016-11-29T10:57:20.216Z,99.99
2016-11-29T10:58:20.201Z,99.99
2016-11-29T10:59:20.181Z,99.99
2016-11-29T11:00:20.263Z,99.99
2016-11-29T11:01:20.147Z,99.99
2016-11-29T11:02:20.128Z,99.99
2016-11-29T11:03:20.110Z,99.99
2016-11-29T11:04:20.094Z,99.99
2016-11-29T11:05:20.074Z,99.99
2016-11-29T11:06:20.062Z,99.99
2016-11-29T11:07:20.041Z,99.99
2016-11-29T11:08:20.338Z,99.99
2016-11-29T11:09:20.003Z,99.99
2016-11-29T11:10:19.990Z,99.99
2016-11-29T11:11:19.967Z,99.99
2016-11-29T11:12:19.952Z,99.99
2016-11-29T11:13:19.934Z,99.99
2016-11-29T11:14:19.916Z,99.99
2016-11-29T11:15:19.898Z,99.99
2016-11-29T11:16:19.882Z,99.99
2016-11-29T11:17:19.863Z,99.99
2016-11-29T11:18:19.848Z,99.99
2016-11-29T11:19:19.825Z,99.99
2016-11-29T11:20:19.811Z,99.99
2016-11-29T11:21:19.793Z,99.99
2016-11-29T11:22:19.773Z,99.99
2016-11-29T11:23:19.755Z,99.99
2016-11-29T11:24:19.741Z,99.99
2016-11-29T11:25:19.722Z,99.99
2016-11-29T11:26:19.710Z,99.99
2016-11-29T11:27:19.686Z,99.99
2016-11-29T11:28:19.669Z,99.99
2016-11-29T11:29:19.654Z,99.99
2016-11-29T11:30:19.634Z,99.99
2016-11-29T11:31:19.638Z,99.99
2016-11-29T11:32:19.601Z,99.99
2016-11-29T11:33:19.582Z,99.99
2016-11-29T11:34:19.564Z,99.99
2016-11-29T11:35:19.547Z,99.99
2016-11-29T11:36:19.529Z,99.99
2016-11-29T11:37:19.511Z,99.99
2016-11-29T11:38:19.493Z,99.99
2016-11-29T11:39:19.476Z,99.99
2016-11-29T11:40:19.459Z,99.99
2016-11-29T11:41:19.443Z,99.99
2016-11-29T11:42:19.424Z,99.99
2016-11-29T11:43:19.410Z,99.99
2016-11-29T11:44:19.390Z,99.99
2016-11-29T11:45:19.374Z,99.99
2016-11-29T11:46:19.356Z,99.99
2016-11-29T11:47:19.342Z,99.99
2016-11-29T11:48:19.319Z,99.99
2016-11-29T11:49:19.304Z,99.99
2016-11-29T11:50:19.285Z,99.99
2016-11-29T11:51:19.267Z,99.99
2016-11-29T11:52:19.250Z,99.99
2016-11-29T11:53:19.234Z,99.99
2016-11-29T11:54:19.214Z,99.99
2016-11-29T11:55:19.201Z,99.99
2016-11-29T11:56:19.180Z,99.99
2016-11-29T11:57:19.162Z,99.99
2016-11-29T11:58:19.145Z,99.99
2016-11-29T11:59:19.127Z,99.99
2016-11-29T12:00:19.112Z,99.99
2016-11-29T12:01:19.093Z,99.99
2016-11-29T12:02:19.078Z,99.99
2016-11-29T12:03:19.060Z,99.99
2016-11-29T12:04:19.041Z,99.99
2016-11-29T12:05:19.024Z,99.99
2016-11-29T12:06:19.006Z,99.99
2016-11-29T12:07:18.991Z,99.99
2016-11-29T12:08:18.971Z,99.99
2016-11-29T12:09:18.952Z,99.99
2016-11-29T12:10:18.934Z,99.99
2016-11-29T12:11:18.921Z,99.99
2016-11-29T12:12:18.900Z,99.99
2016-11-29T12:13:18.882Z,99.99
2016-11-29T12:14:18.868Z,99.99
2016-11-29T12:15:18.851Z,99.99
2016-11-29T12:16:18.832Z,99.99
2016-11-29T12:17:18.814Z,99.99
2016-11-29T12:18:18.810Z,99.99
2016-11-29T12:19:18.778Z,99.99
2016-11-29T12:20:18.763Z,99.99
2016-11-29T12:21:18.745Z,99.99
2016-11-29T12:22:18.725Z,99.99
2016-11-29T12:23:18.710Z,99.99
2016-11-29T12:24:18.709Z,99.99
2016-11-29T12:25:18.676Z,99.99
2016-11-29T12:26:18.662Z,99.99
2016-11-29T12:27:18.642Z,99.99
2016-11-29T12:28:18.624Z,99.99
2016-11-29T12:29:18.607Z,99.99
2016-11-29T12:30:18.586Z,99.99
2016-11-29T12:31:18.575Z,99.99
2016-11-29T12:32:18.553Z,99.99
2016-11-29T12:33:18.533Z,99.99
2016-11-29T12:34:18.517Z,99.99
2016-11-29T12:35:18.557Z,99.99
2016-11-29T12:36:18.486Z,99.99
2016-11-29T12:37:18.468Z,99.99
2016-11-29T12:38:18.449Z,99.99
2016-11-29T12:39:18.431Z,99.99
2016-11-29T12:40:18.414Z,99.99
2016-11-29T12:41:18.447Z,99.99
2016-11-29T12:42:18.379Z,99.99
2016-11-29T12:43:18.361Z,99.99
2016-11-29T12:44:18.352Z,99.99
2016-11-29T12:45:18.330Z,99.99
2016-11-29T12:46:18.311Z,99.99
2016-11-29T12:47:18.295Z,99.99
2016-11-29T12:48:18.291Z,99.99
2016-11-29T12:49:18.256Z,99.99
2016-11-29T12:50:18.241Z,99.99
2016-11-29T12:51:18.221Z,99.99
2016-11-29T12:52:18.205Z,99.99
2016-11-29T12:53:18.195Z,99.99
2016-11-29T12:54:18.171Z,99.99
2016-11-29T12:55:18.151Z,99.99